createdAt,value
2019-02-28T00:00:55.132Z,15.55
2019-02-28T00:03:26.263Z,15.35
2019-02-28T00:05:53.959Z,14.30
2019-02-28T00:08:22.406Z,14.55
2019-02-28T00:10:50.828Z,14.30
2019-02-28T00:13:22.539Z,15.63
2019-02-28T00:15:52.683Z,15.15
2019-02-28T00:18:21.126Z,13.95
2019-02-28T00:20:49.574Z,13.13
2019-02-28T00:23:19.172Z,11.35
2019-02-28T00:25:48.267Z,13.62
2019-02-28T00:28:16.709Z,13.10
2019-02-28T00:30:45.285Z,12.40
2019-02-28T00:33:13.752Z,12.07
2019-02-28T00:35:44.707Z,16.73
2019-02-28T00:38:12.393Z,14.78
2019-02-28T00:40:40.988Z,12.13
2019-02-28T00:43:09.494Z,11.70
2019-02-28T00:45:38.014Z,12.82
2019-02-28T00:48:06.561Z,11.38
2019-02-28T00:50:38.096Z,10.48
2019-02-28T00:53:07.390Z,10.93
2019-02-28T00:55:35.900Z,9.70
2019-02-28T00:58:04.389Z,12.85
2019-02-28T01:00:32.929Z,9.63
2019-02-28T01:03:01.433Z,10.50
2019-02-28T01:05:29.854Z,9.60
2019-02-28T01:07:58.633Z,14.25
2019-02-28T01:10:27.116Z,12.98
2019-02-28T01:12:55.541Z,12.07
2019-02-28T01:15:24.006Z,12.30
2019-02-28T01:17:52.419Z,11.68
2019-02-28T01:20:20.920Z,13.68
2019-02-28T01:22:49.369Z,10.43
2019-02-28T01:25:18.631Z,11.10
2019-02-28T01:27:47.077Z,10.90
2019-02-28T01:30:16.322Z,9.98
2019-02-28T01:32:49.772Z,14.07
2019-02-28T01:35:15.158Z,11.70
2019-02-28T01:37:43.584Z,11.63
2019-02-28T01:40:14.198Z,11.88
2019-02-28T01:42:42.723Z,10.08
2019-02-28T01:45:13.461Z,12.60
2019-02-28T01:47:42.029Z,14.38
2019-02-28T01:50:11.911Z,10.10
2019-02-28T01:52:44.359Z,11.53
2019-02-28T01:55:11.441Z,11.22
2019-02-28T01:57:43.990Z,11.40
2019-02-28T02:00:17.762Z,11.15
2019-02-28T02:02:46.332Z,10.80
2019-02-28T02:05:16.878Z,12.18
2019-02-28T02:07:45.421Z,11.97
2019-02-28T02:10:21.584Z,10.00
2019-02-28T02:12:51.087Z,11.28
2019-02-28T02:15:19.723Z,10.93
2019-02-28T02:17:49.799Z,10.05
2019-02-28T02:20:18.553Z,12.00
2019-02-28T02:22:47.053Z,10.75
2019-02-28T02:25:15.623Z,11.75
2019-02-28T02:27:44.190Z,11.55
2019-02-28T02:30:21.119Z,12.55
2019-02-28T02:32:49.656Z,8.85
2019-02-28T02:35:18.205Z,14.50
2019-02-28T02:37:46.758Z,12.93
2019-02-28T02:40:16.662Z,10.78
2019-02-28T02:42:48.585Z,13.58
2019-02-28T02:45:15.737Z,10.75
2019-02-28T02:47:44.329Z,10.70
2019-02-28T02:50:16.117Z,11.78
2019-02-28T02:52:44.627Z,11.28
2019-02-28T02:55:13.924Z,11.22
2019-02-28T02:57:42.540Z,10.45
2019-02-28T03:00:19.169Z,11.55
2019-02-28T03:02:48.032Z,8.90
2019-02-28T03:05:16.705Z,9.83
2019-02-28T03:07:45.397Z,9.20
2019-02-28T03:10:17.958Z,8.85
2019-02-28T03:12:47.111Z,9.70
2019-02-28T03:15:25.263Z,9.23
2019-02-28T03:17:49.454Z,8.60
2019-02-28T03:20:18.151Z,9.70
2019-02-28T03:22:46.628Z,12.70
2019-02-28T03:25:16.244Z,10.58
2019-02-28T03:27:44.695Z,9.58
2019-02-28T03:30:26.033Z,8.65
2019-02-28T03:32:46.091Z,13.88
2019-02-28T03:35:14.696Z,9.85
2019-02-28T03:37:43.115Z,9.98
2019-02-28T03:40:13.012Z,10.85
2019-02-28T03:42:41.432Z,9.08
2019-02-28T03:45:11.814Z,8.83
2019-02-28T03:47:40.913Z,10.13
2019-02-28T03:50:10.375Z,9.20
2019-02-28T03:52:43.879Z,9.48
2019-02-28T03:55:12.386Z,11.50
2019-02-28T03:57:40.891Z,13.38
2019-02-28T04:00:20.889Z,7.95
2019-02-28T04:02:56.617Z,9.90
2019-02-28T04:05:26.694Z,11.15
2019-02-28T04:07:53.539Z,10.08
2019-02-28T04:10:22.014Z,13.18
2019-02-28T04:12:50.377Z,9.95
2019-02-28T04:15:20.070Z,13.35
2019-02-28T04:17:48.493Z,13.20
2019-02-28T04:20:17.117Z,10.03
2019-02-28T04:22:45.613Z,11.43
2019-02-28T04:25:14.204Z,11.48
2019-02-28T04:27:42.732Z,13.18
2019-02-28T04:30:12.988Z,13.83
2019-02-28T04:32:41.511Z,10.38
2019-02-28T04:35:10.579Z,10.15
2019-02-28T04:37:44.969Z,10.43
2019-02-28T04:40:13.310Z,12.13
2019-02-28T04:42:41.769Z,11.18
2019-02-28T04:45:14.406Z,10.18
2019-02-28T04:47:43.000Z,11.48
2019-02-28T04:50:13.058Z,10.58
2019-02-28T04:52:46.291Z,12.78
2019-02-28T04:55:12.076Z,9.88
2019-02-28T04:57:40.651Z,10.30
2019-02-28T05:00:12.366Z,10.23
2019-02-28T05:02:40.795Z,12.00
2019-02-28T05:05:12.516Z,13.40
2019-02-28T05:07:39.494Z,11.65
2019-02-28T05:10:09.699Z,13.68
2019-02-28T05:12:39.730Z,13.85
2019-02-28T05:15:13.542Z,12.47
2019-02-28T05:17:42.033Z,14.23
2019-02-28T05:20:12.813Z,13.98
2019-02-28T05:22:41.468Z,13.48
2019-02-28T05:25:10.933Z,11.08
2019-02-28T05:27:39.424Z,12.03
2019-02-28T05:30:19.268Z,10.70
2019-02-28T05:32:45.947Z,11.43
2019-02-28T05:35:14.446Z,12.88
2019-02-28T05:37:46.875Z,14.85
2019-02-28T05:40:15.337Z,12.40
2019-02-28T05:42:43.873Z,10.23
2019-02-28T05:45:14.935Z,9.65
2019-02-28T05:47:46.750Z,9.83
2019-02-28T05:50:16.636Z,10.30
2019-02-28T05:52:44.474Z,12.82
2019-02-28T05:55:13.033Z,10.20
2019-02-28T05:57:43.275Z,12.07
2019-02-28T06:00:15.809Z,10.45
2019-02-28T06:02:44.286Z,11.18
2019-02-28T06:05:12.961Z,9.78
2019-02-28T06:07:41.583Z,11.75
2019-02-28T06:10:12.046Z,11.70
2019-02-28T06:12:43.824Z,9.63
2019-02-28T06:15:13.041Z,17.05
2019-02-28T06:17:41.736Z,16.37
2019-02-28T06:20:11.626Z,10.90
2019-02-28T06:22:40.054Z,15.88
2019-02-28T06:25:10.237Z,21.17
2019-02-28T06:27:42.292Z,25.40
2019-02-28T06:30:16.141Z,17.85
2019-02-28T06:32:44.694Z,13.48
2019-02-28T06:35:15.999Z,14.78
2019-02-28T06:37:46.478Z,13.98
2019-02-28T06:40:18.260Z,13.35
2019-02-28T06:42:47.677Z,11.50
2019-02-28T06:45:17.705Z,12.75
2019-02-28T06:47:49.515Z,12.07
2019-02-28T06:50:17.076Z,14.70
2019-02-28T06:52:45.603Z,13.10
2019-02-28T06:55:21.957Z,13.58
2019-02-28T06:57:50.448Z,13.35
2019-02-28T07:00:19.341Z,11.22
2019-02-28T07:02:49.963Z,26.93
2019-02-28T07:05:18.073Z,19.20
2019-02-28T07:07:49.116Z,14.13
2019-02-28T07:10:19.584Z,12.13
2019-02-28T07:12:48.116Z,12.40
2019-02-28T07:15:16.629Z,9.98
2019-02-28T07:17:46.290Z,12.98
2019-02-28T07:20:17.647Z,12.35
2019-02-28T07:22:46.129Z,13.40
2019-02-28T07:25:14.681Z,9.70
2019-02-28T07:27:43.225Z,9.98
2019-02-28T07:30:18.423Z,11.50
2019-02-28T07:32:46.834Z,11.03
2019-02-28T07:35:15.365Z,14.28
2019-02-28T07:37:43.864Z,13.20
2019-02-28T07:40:17.570Z,10.43
2019-02-28T07:42:46.256Z,13.45
2019-02-28T07:45:15.704Z,12.43
2019-02-28T07:47:44.330Z,13.70
2019-02-28T07:50:16.728Z,12.75
2019-02-28T07:52:45.442Z,12.28
2019-02-28T07:55:15.623Z,12.85
2019-02-28T07:57:44.140Z,14.35
2019-02-28T08:00:18.128Z,12.58
2019-02-28T08:02:46.007Z,15.00
2019-02-28T08:05:14.982Z,12.85
2019-02-28T08:07:50.295Z,12.98
2019-02-28T08:10:16.791Z,13.15
2019-02-28T08:12:45.356Z,16.00
2019-02-28T08:15:22.424Z,12.65
2019-02-28T08:17:49.638Z,15.05
2019-02-28T08:20:19.043Z,14.15
2019-02-28T08:22:47.557Z,16.35
2019-02-28T08:25:16.519Z,14.18
2019-02-28T08:27:45.081Z,15.50
2019-02-28T08:30:24.555Z,13.93
2019-02-28T08:32:53.081Z,12.85
2019-02-28T08:35:21.670Z,13.00
2019-02-28T08:37:55.782Z,14.18
2019-02-28T08:40:22.956Z,16.93
2019-02-28T08:42:51.506Z,18.23
2019-02-28T08:45:20.087Z,16.90
2019-02-28T08:47:48.669Z,14.55
2019-02-28T08:50:21.458Z,15.68
2019-02-28T08:52:53.966Z,12.98
2019-02-28T08:55:28.641Z,14.47
2019-02-28T08:57:56.918Z,14.75
2019-02-28T09:00:24.072Z,14.15
2019-02-28T09:02:53.713Z,16.55
2019-02-28T09:05:26.348Z,15.25
2019-02-28T09:07:52.745Z,19.32
2019-02-28T09:10:22.872Z,17.32
2019-02-28T09:12:51.528Z,19.60
2019-02-28T09:15:20.771Z,20.62
2019-02-28T09:17:49.379Z,14.60
2019-02-28T09:20:18.153Z,17.82
2019-02-28T09:22:46.785Z,14.65
2019-02-28T09:25:22.873Z,15.98
2019-02-28T09:27:51.668Z,19.52
2019-02-28T09:30:38.119Z,16.23
2019-02-28T09:33:06.695Z,16.90
2019-02-28T09:35:35.192Z,14.63
2019-02-28T09:38:07.616Z,20.77
2019-02-28T09:40:34.356Z,16.57
2019-02-28T09:43:02.925Z,19.10
2019-02-28T09:45:33.391Z,14.40
2019-02-28T09:48:02.366Z,13.48
2019-02-28T09:50:33.065Z,14.07
2019-02-28T09:53:01.795Z,15.35
2019-02-28T09:55:34.362Z,13.35
2019-02-28T09:58:00.468Z,14.18
2019-02-28T10:00:30.153Z,13.80
2019-02-28T10:02:58.642Z,13.28
2019-02-28T10:05:27.170Z,14.78
2019-02-28T10:08:01.613Z,14.10
2019-02-28T10:10:33.092Z,16.52
2019-02-28T10:13:01.669Z,16.10
2019-02-28T10:15:30.275Z,15.10
2019-02-28T10:18:00.768Z,15.68
2019-02-28T10:20:33.263Z,16.57
2019-02-28T10:23:01.834Z,17.10
2019-02-28T10:25:30.284Z,17.42
2019-02-28T10:28:02.579Z,18.85
2019-02-28T10:30:32.109Z,17.98
2019-02-28T10:32:59.583Z,13.83
2019-02-28T10:35:28.112Z,13.98
2019-02-28T10:37:58.402Z,14.07
2019-02-28T10:40:27.651Z,12.03
2019-02-28T10:42:56.470Z,13.15
2019-02-28T10:45:25.556Z,14.60
2019-02-28T10:47:54.235Z,15.38
2019-02-28T10:50:25.982Z,15.88
2019-02-28T10:52:54.703Z,14.75
2019-02-28T10:55:23.389Z,14.50
2019-02-28T10:57:52.074Z,12.82
2019-02-28T11:00:33.661Z,13.00
2019-02-28T11:03:02.862Z,13.38
2019-02-28T11:05:33.889Z,12.88
2019-02-28T11:08:02.979Z,16.17
2019-02-28T11:10:35.657Z,9.23
2019-02-28T11:13:04.898Z,10.90
2019-02-28T11:15:33.326Z,10.58
2019-02-28T11:18:01.926Z,12.98
2019-02-28T11:20:30.504Z,10.90
2019-02-28T11:22:59.102Z,12.23
2019-02-28T11:25:28.804Z,13.20
2019-02-28T11:27:57.372Z,13.30
2019-02-28T11:30:30.545Z,10.08
2019-02-28T11:33:03.076Z,9.58
2019-02-28T11:35:30.744Z,9.33
2019-02-28T11:37:59.343Z,9.65
2019-02-28T11:40:31.639Z,9.88
2019-02-28T11:43:02.828Z,10.32
2019-02-28T11:45:35.274Z,9.80
2019-02-28T11:48:06.611Z,10.32
2019-02-28T11:50:35.380Z,9.05
2019-02-28T11:53:05.974Z,7.60
2019-02-28T11:55:34.623Z,9.18
2019-02-28T11:58:03.173Z,10.10
2019-02-28T12:00:36.771Z,10.95
2019-02-28T12:03:05.896Z,11.35
2019-02-28T12:05:34.583Z,11.40
2019-02-28T12:08:03.092Z,14.45
2019-02-28T12:10:31.505Z,10.68
2019-02-28T12:12:59.988Z,12.07
2019-02-28T12:15:33.253Z,11.63
2019-02-28T12:18:04.704Z,11.90
2019-02-28T12:20:32.123Z,12.25
2019-02-28T12:23:00.629Z,10.85
2019-02-28T12:25:29.154Z,11.73
2019-02-28T12:27:59.395Z,9.93
2019-02-28T12:30:33.069Z,12.95
2019-02-28T12:33:01.466Z,11.00
2019-02-28T12:35:30.237Z,11.73
2019-02-28T12:37:58.752Z,12.53
2019-02-28T12:40:38.696Z,10.35
2019-02-28T12:43:09.758Z,10.75
2019-02-28T12:45:41.417Z,9.63
2019-02-28T12:48:09.917Z,14.35
2019-02-28T12:50:38.445Z,9.13
2019-02-28T12:53:07.100Z,11.10
2019-02-28T12:55:38.697Z,10.13
2019-02-28T12:58:05.821Z,11.12
2019-02-28T13:00:39.617Z,10.98
2019-02-28T13:03:10.016Z,10.05
2019-02-28T13:05:38.445Z,10.60
2019-02-28T13:08:07.217Z,10.63
2019-02-28T13:10:35.907Z,10.35
2019-02-28T13:13:06.802Z,11.97
2019-02-28T13:15:34.916Z,10.08
2019-02-28T13:18:07.590Z,11.18
2019-02-28T13:20:36.466Z,10.43
2019-02-28T13:23:05.631Z,12.73
2019-02-28T13:25:34.128Z,13.70
2019-02-28T13:28:02.636Z,11.10
2019-02-28T13:30:31.147Z,10.78
2019-02-28T13:32:59.844Z,11.70
2019-02-28T13:35:36.414Z,12.03
2019-02-28T13:38:04.928Z,12.58
2019-02-28T13:40:33.392Z,12.60
2019-02-28T13:43:02.174Z,12.37
2019-02-28T13:45:31.034Z,14.75
2019-02-28T13:47:59.525Z,13.50
2019-02-28T13:50:32.588Z,11.12
2019-02-28T13:53:17.043Z,11.85
2019-02-28T13:55:32.037Z,13.35
2019-02-28T13:58:00.565Z,12.00
2019-02-28T14:00:30.701Z,14.63
2019-02-28T14:03:13.003Z,14.68
2019-02-28T14:05:41.884Z,13.45
2019-02-28T14:08:12.151Z,12.20
2019-02-28T14:10:41.324Z,15.75
2019-02-28T14:13:09.925Z,11.88
2019-02-28T14:15:43.561Z,13.15
2019-02-28T14:18:13.439Z,11.70
2019-02-28T14:20:41.919Z,12.78
2019-02-28T14:23:10.416Z,11.22
2019-02-28T14:25:39.817Z,13.28
2019-02-28T14:28:09.284Z,14.65
2019-02-28T14:30:37.811Z,12.78
2019-02-28T14:33:06.519Z,12.63
2019-02-28T14:35:37.599Z,13.05
2019-02-28T14:38:05.816Z,13.58
2019-02-28T14:40:34.390Z,12.33
2019-02-28T14:43:02.876Z,12.43
2019-02-28T14:45:43.011Z,12.58
2019-02-28T14:48:10.599Z,16.12
2019-02-28T14:50:39.457Z,16.35
2019-02-28T14:53:13.093Z,14.63
2019-02-28T14:55:38.358Z,13.80
2019-02-28T14:58:07.789Z,13.30
2019-02-28T15:00:38.932Z,15.25
2019-02-28T15:03:07.071Z,13.32
2019-02-28T15:05:38.215Z,13.60
2019-02-28T15:08:07.271Z,16.77
2019-02-28T15:10:35.874Z,14.43
2019-02-28T15:13:05.131Z,15.38
2019-02-28T15:15:36.154Z,14.75
2019-02-28T15:18:04.759Z,16.90
2019-02-28T15:20:33.402Z,13.85
2019-02-28T15:23:03.844Z,14.15
2019-02-28T15:25:32.418Z,15.68
2019-02-28T15:28:00.919Z,14.75
2019-02-28T15:30:39.511Z,14.63
2019-02-28T15:33:08.099Z,14.75
2019-02-28T15:35:36.666Z,31.37
2019-02-28T15:38:08.778Z,13.18
2019-02-28T15:40:41.715Z,12.13
2019-02-28T15:43:10.268Z,13.78
2019-02-28T15:45:38.932Z,14.70
2019-02-28T15:48:07.480Z,13.13
2019-02-28T15:50:35.955Z,14.30
2019-02-28T15:53:04.751Z,24.57
2019-02-28T15:55:35.219Z,15.78
2019-02-28T15:58:05.763Z,14.65
2019-02-28T16:00:35.584Z,14.00
2019-02-28T16:03:04.395Z,14.05
2019-02-28T16:05:32.891Z,16.67
2019-02-28T16:08:01.490Z,13.20
2019-02-28T16:10:33.096Z,15.00
2019-02-28T16:13:01.673Z,17.92
2019-02-28T16:15:30.305Z,15.90
2019-02-28T16:17:58.922Z,15.83
2019-02-28T16:20:30.446Z,15.85
2019-02-28T16:22:57.738Z,16.27
2019-02-28T16:25:33.580Z,15.43
2019-02-28T16:28:04.557Z,14.50
2019-02-28T16:30:32.928Z,21.07
2019-02-28T16:33:01.473Z,15.00
2019-02-28T16:35:30.053Z,15.38
2019-02-28T16:37:58.585Z,15.35
2019-02-28T16:40:31.568Z,12.88
2019-02-28T16:43:00.025Z,16.85
2019-02-28T16:45:31.166Z,17.25
2019-02-28T16:48:02.990Z,15.55
2019-02-28T16:50:31.602Z,13.10
2019-02-28T16:53:00.143Z,14.40
2019-02-28T16:55:31.064Z,17.30
2019-02-28T16:57:58.939Z,23.38
2019-02-28T17:00:27.816Z,17.95
2019-02-28T17:02:58.014Z,15.30
2019-02-28T17:05:28.231Z,13.68
2019-02-28T17:07:56.967Z,16.65
2019-02-28T17:10:33.183Z,15.08
2019-02-28T17:13:09.491Z,17.10
2019-02-28T17:15:39.689Z,16.87
2019-02-28T17:18:26.187Z,17.85
2019-02-28T17:20:54.667Z,19.15
2019-02-28T17:23:23.182Z,14.93
2019-02-28T17:25:53.438Z,14.35
2019-02-28T17:28:35.687Z,16.48
2019-02-28T17:31:22.349Z,14.68
2019-02-28T17:33:51.433Z,15.00
2019-02-28T17:36:20.636Z,14.18
2019-02-28T17:38:49.232Z,14.28
2019-02-28T17:41:17.740Z,16.48
2019-02-28T17:44:05.704Z,17.30
2019-02-28T17:46:34.181Z,16.42
2019-02-28T17:49:32.755Z,19.87
2019-02-28T17:52:06.944Z,14.30
2019-02-28T17:54:54.213Z,14.33
2019-02-28T17:57:29.734Z,17.65
2019-02-28T18:00:34.930Z,16.50
2019-02-28T18:03:15.384Z,20.57
2019-02-28T18:06:18.569Z,35.85
2019-02-28T18:09:05.193Z,23.90
2019-02-28T18:11:39.149Z,22.67
2019-02-28T18:14:22.761Z,20.88
2019-02-28T18:17:13.773Z,16.25
2019-02-28T18:19:51.095Z,15.98
2019-02-28T18:22:38.298Z,14.33
2019-02-28T18:25:18.882Z,15.32
2019-02-28T18:28:09.688Z,18.05
2019-02-28T18:30:53.515Z,16.73
2019-02-28T18:33:22.018Z,15.43
2019-02-28T18:35:50.653Z,16.37
2019-02-28T18:38:19.099Z,14.55
2019-02-28T18:40:47.718Z,14.28
2019-02-28T18:43:16.194Z,12.43
2019-02-28T18:45:44.739Z,17.37
2019-02-28T18:48:14.575Z,10.85
2019-02-28T18:50:43.436Z,11.60
2019-02-28T18:53:11.880Z,11.03
2019-02-28T18:55:40.414Z,10.82
2019-02-28T18:58:08.877Z,9.28
2019-02-28T19:00:37.453Z,14.43
2019-02-28T19:03:06.109Z,10.23
2019-02-28T19:05:34.561Z,13.13
2019-02-28T19:08:03.108Z,13.08
2019-02-28T19:10:31.615Z,11.45
2019-02-28T19:13:00.062Z,12.15
2019-02-28T19:15:28.653Z,10.20
2019-02-28T19:17:57.074Z,13.58
2019-02-28T19:20:25.548Z,10.35
2019-02-28T19:22:54.014Z,11.00
2019-02-28T19:25:22.459Z,17.07
2019-02-28T19:27:50.968Z,10.65
2019-02-28T19:30:19.573Z,13.32
2019-02-28T19:32:48.065Z,11.50
2019-02-28T19:35:16.601Z,8.78
2019-02-28T19:37:45.181Z,10.08
2019-02-28T19:40:14.496Z,9.23
2019-02-28T19:42:43.030Z,8.60
2019-02-28T19:45:29.724Z,9.35
2019-02-28T19:47:58.227Z,7.95
2019-02-28T19:50:26.731Z,7.53
2019-02-28T19:52:56.752Z,7.37
2019-02-28T19:55:25.290Z,14.43
2019-02-28T19:57:53.745Z,8.75
2019-02-28T20:00:22.349Z,10.50
2019-02-28T20:02:50.830Z,8.70
2019-02-28T20:05:19.640Z,11.00
2019-02-28T20:07:48.076Z,12.60
2019-02-28T20:10:20.387Z,10.72
2019-02-28T20:12:48.957Z,7.90
2019-02-28T20:15:26.371Z,19.65
2019-02-28T20:17:54.959Z,11.03
2019-02-28T20:20:28.642Z,7.30
2019-02-28T20:22:58.645Z,9.65
2019-02-28T20:25:27.201Z,6.97
2019-02-28T20:27:55.682Z,10.00
2019-02-28T20:30:25.928Z,11.60
2019-02-28T20:32:54.516Z,6.35
2019-02-28T20:35:26.466Z,9.23
2019-02-28T20:37:53.404Z,11.97
2019-02-28T20:40:27.416Z,8.35
2019-02-28T20:42:55.942Z,8.23
2019-02-28T20:45:24.476Z,12.45
2019-02-28T20:47:52.970Z,9.38
2019-02-28T20:50:48.211Z,6.45
2019-02-28T20:53:16.648Z,7.17
2019-02-28T20:55:45.155Z,7.87
2019-02-28T20:58:13.616Z,7.72
2019-02-28T21:00:42.023Z,7.78
2019-02-28T21:03:10.449Z,6.53
2019-02-28T21:05:38.975Z,11.97
2019-02-28T21:08:07.556Z,5.17
2019-02-28T21:10:36.147Z,7.35
2019-02-28T21:13:04.842Z,8.35
2019-02-28T21:15:33.335Z,8.08
2019-02-28T21:18:01.777Z,8.58
2019-02-28T21:20:30.226Z,14.65
2019-02-28T21:22:59.647Z,8.95
2019-02-28T21:25:28.149Z,4.83
2019-02-28T21:27:56.592Z,6.75
2019-02-28T21:30:26.757Z,9.58
2019-02-28T21:32:56.896Z,7.90
2019-02-28T21:35:26.136Z,14.28
2019-02-28T21:37:54.763Z,7.15
2019-02-28T21:40:24.072Z,12.43
2019-02-28T21:42:52.592Z,9.00
2019-02-28T21:45:30.015Z,7.37
2019-02-28T21:47:58.480Z,13.98
2019-02-28T21:50:26.894Z,15.55
2019-02-28T21:52:57.496Z,16.85
2019-02-28T21:55:25.743Z,15.18
2019-02-28T21:57:54.277Z,13.70
2019-02-28T22:00:27.794Z,29.63
2019-02-28T22:02:56.320Z,19.32
2019-02-28T22:05:24.827Z,20.77
2019-02-28T22:07:53.268Z,12.78
2019-02-28T22:10:21.793Z,11.40
2019-02-28T22:12:50.329Z,14.25
2019-02-28T22:15:22.905Z,14.60
2019-02-28T22:17:51.406Z,9.20
2019-02-28T22:20:19.993Z,10.32
2019-02-28T22:22:48.555Z,8.00
2019-02-28T22:25:17.661Z,10.53
2019-02-28T22:27:46.209Z,10.13
2019-02-28T22:30:37.712Z,11.70
2019-02-28T22:33:14.238Z,5.95
2019-02-28T22:35:44.291Z,6.85
2019-02-28T22:38:12.821Z,11.63
2019-02-28T22:40:41.314Z,5.78
2019-02-28T22:43:09.789Z,12.85
2019-02-28T22:45:38.226Z,8.10
2019-02-28T22:48:08.177Z,9.43
2019-02-28T22:50:36.579Z,7.17
2019-02-28T22:53:05.177Z,5.12
2019-02-28T22:55:33.765Z,4.17
2019-02-28T22:58:10.521Z,5.33
2019-02-28T23:01:07.864Z,5.83
2019-02-28T23:03:37.044Z,5.83
2019-02-28T23:06:06.240Z,6.08
2019-02-28T23:08:34.719Z,8.23
2019-02-28T23:11:03.346Z,8.43
2019-02-28T23:13:31.935Z,11.70
2019-02-28T23:16:00.415Z,4.12
2019-02-28T23:18:29.089Z,6.00
2019-02-28T23:20:57.512Z,8.08
2019-02-28T23:23:25.964Z,6.08
2019-02-28T23:25:54.376Z,9.53
2019-02-28T23:28:28.357Z,7.40
2019-02-28T23:31:19.494Z,7.05
2019-02-28T23:33:47.928Z,6.90
2019-02-28T23:36:16.349Z,4.22
2019-02-28T23:38:44.991Z,3.98
2019-02-28T23:41:13.396Z,4.37
2019-02-28T23:43:41.875Z,4.40
2019-02-28T23:46:10.411Z,3.20
2019-02-28T23:48:38.826Z,5.78
2019-02-28T23:51:07.405Z,4.53
2019-02-28T23:53:35.864Z,5.58
2019-02-28T23:56:04.420Z,6.45
2019-02-28T23:58:32.953Z,5.55
